sensor_id;sensor_type;location;lat;lon;timestamp;pressure;altitude;pressure_sealevel;temperature;humidity
55460;BME280;41326;45.302;-122.946;2023-06-04T00:00:28;101106.36;;;20.78;47.75
55460;BME280;41326;45.302;-122.946;2023-06-04T00:03:00;101107.15;;;20.76;47.74
55460;BME280;41326;45.302;-122.946;2023-06-04T00:05:28;101108.68;;;20.84;47.49
55460;BME280;41326;45.302;-122.946;2023-06-04T00:07:59;101105.89;;;20.85;47.44
55460;BME280;41326;45.302;-122.946;2023-06-04T00:10:29;101104.61;;;20.88;47.32
55460;BME280;41326;45.302;-122.946;2023-06-04T00:13:10;101102.68;;;20.85;47.46
55460;BME280;41326;45.302;-122.946;2023-06-04T00:16:12;101100.59;;;20.85;47.56
55460;BME280;41326;45.302;-122.946;2023-06-04T00:18:11;101098.02;;;20.89;47.50
55460;BME280;41326;45.302;-122.946;2023-06-04T00:20:44;101099.83;;;20.95;47.35
55460;BME280;41326;45.302;-122.946;2023-06-04T00:23:20;101097.24;;;20.95;47.34
55460;BME280;41326;45.302;-122.946;2023-06-04T00:25:45;101096.69;;;20.97;47.35
55460;BME280;41326;45.302;-122.946;2023-06-04T00:28:15;101094.00;;;21.00;47.42
55460;BME280;41326;45.302;-122.946;2023-06-04T00:30:43;101091.70;;;21.01;47.47
55460;BME280;41326;45.302;-122.946;2023-06-04T00:33:14;101091.25;;;20.99;47.69
55460;BME280;41326;45.302;-122.946;2023-06-04T00:35:44;101087.07;;;21.02;47.80
55460;BME280;41326;45.302;-122.946;2023-06-04T00:38:14;101088.46;;;21.05;47.86
55460;BME280;41326;45.302;-122.946;2023-06-04T00:40:44;101085.91;;;21.08;47.91
55460;BME280;41326;45.302;-122.946;2023-06-04T00:43:15;101087.00;;;21.12;47.93
55460;BME280;41326;45.302;-122.946;2023-06-04T00:45:45;101089.62;;;21.14;48.30
55460;BME280;41326;45.302;-122.946;2023-06-04T00:48:16;101084.00;;;21.21;48.41
55460;BME280;41326;45.302;-122.946;2023-06-04T00:50:47;101078.74;;;21.25;48.37
55460;BME280;41326;45.302;-122.946;2023-06-04T00:53:17;101075.98;;;21.25;48.01
55460;BME280;41326;45.302;-122.946;2023-06-04T00:55:47;101078.39;;;21.26;48.25
55460;BME280;41326;45.302;-122.946;2023-06-04T00:58:17;101075.48;;;21.29;48.28
55460;BME280;41326;45.302;-122.946;2023-06-04T01:00:48;101079.77;;;21.31;48.32
55460;BME280;41326;45.302;-122.946;2023-06-04T01:03:19;101077.80;;;21.37;48.22
55460;BME280;41326;45.302;-122.946;2023-06-04T01:05:54;101077.33;;;21.40;48.25
55460;BME280;41326;45.302;-122.946;2023-06-04T01:08:18;101078.05;;;21.45;48.20
55460;BME280;41326;45.302;-122.946;2023-06-04T01:10:52;101082.46;;;21.45;48.34
55460;BME280;41326;45.302;-122.946;2023-06-04T01:13:18;101084.14;;;21.44;48.42
55460;BME280;41326;45.302;-122.946;2023-06-04T01:15:49;101079.78;;;21.41;48.62
55460;BME280;41326;45.302;-122.946;2023-06-04T01:18:23;101080.08;;;21.44;48.73
55460;BME280;41326;45.302;-122.946;2023-06-04T01:20:52;101081.95;;;21.50;48.63
55460;BME280;41326;45.302;-122.946;2023-06-04T01:23:26;101084.13;;;21.52;48.66
55460;BME280;41326;45.302;-122.946;2023-06-04T01:25:50;101081.96;;;21.48;48.84
55460;BME280;41326;45.302;-122.946;2023-06-04T01:28:21;101085.14;;;21.51;48.82
55460;BME280;41326;45.302;-122.946;2023-06-04T01:30:51;101083.97;;;21.53;48.87
55460;BME280;41326;45.302;-122.946;2023-06-04T01:33:22;101083.96;;;21.51;49.02
55460;BME280;41326;45.302;-122.946;2023-06-04T01:35:51;101085.19;;;21.49;49.15
55460;BME280;41326;45.302;-122.946;2023-06-04T01:38:22;101087.96;;;21.50;49.22
55460;BME280;41326;45.302;-122.946;2023-06-04T01:40:53;101087.29;;;21.58;49.03
55460;BME280;41326;45.302;-122.946;2023-06-04T01:43:23;101091.41;;;21.59;49.08
55460;BME280;41326;45.302;-122.946;2023-06-04T01:45:54;101094.33;;;21.59;49.14
55460;BME280;41326;45.302;-122.946;2023-06-04T01:48:24;101101.04;;;21.62;49.13
55460;BME280;41326;45.302;-122.946;2023-06-04T01:50:55;101101.60;;;21.64;49.17
55460;BME280;41326;45.302;-122.946;2023-06-04T01:53:25;101111.81;;;21.61;49.37
55460;BME280;41326;45.302;-122.946;2023-06-04T01:55:55;101115.64;;;21.60;49.56
55460;BME280;41326;45.302;-122.946;2023-06-04T01:58:26;101119.80;;;21.62;49.57
55460;BME280;41326;45.302;-122.946;2023-06-04T02:00:56;101122.46;;;21.68;49.45
55460;BME280;41326;45.302;-122.946;2023-06-04T02:03:26;101124.87;;;21.67;49.52
55460;BME280;41326;45.302;-122.946;2023-06-04T02:05:56;101137.21;;;21.73;49.38
55460;BME280;41326;45.302;-122.946;2023-06-04T02:08:26;101139.61;;;21.75;49.44
55460;BME280;41326;45.302;-122.946;2023-06-04T02:10:56;101150.47;;;21.76;49.46
55460;BME280;41326;45.302;-122.946;2023-06-04T02:13:27;101154.42;;;21.72;49.64
55460;BME280;41326;45.302;-122.946;2023-06-04T02:15:57;101160.07;;;21.75;49.68
55460;BME280;41326;45.302;-122.946;2023-06-04T02:18:27;101167.83;;;21.74;49.75
55460;BME280;41326;45.302;-122.946;2023-06-04T02:20:58;101168.33;;;21.75;49.79
55460;BME280;41326;45.302;-122.946;2023-06-04T02:23:28;101175.42;;;21.79;49.73
55460;BME280;41326;45.302;-122.946;2023-06-04T02:25:58;101179.66;;;21.78;49.79
55460;BME280;41326;45.302;-122.946;2023-06-04T02:28:29;101180.26;;;21.83;49.70
55460;BME280;41326;45.302;-122.946;2023-06-04T02:31:00;101180.96;;;21.80;49.83
55460;BME280;41326;45.302;-122.946;2023-06-04T02:33:30;101180.30;;;21.79;49.94
55460;BME280;41326;45.302;-122.946;2023-06-04T02:36:00;101183.69;;;21.75;50.12
55460;BME280;41326;45.302;-122.946;2023-06-04T02:38:31;101188.90;;;21.81;50.00
55460;BME280;41326;45.302;-122.946;2023-06-04T02:41:01;101191.65;;;21.79;50.11
55460;BME280;41326;45.302;-122.946;2023-06-04T02:43:32;101192.70;;;21.83;50.04
55460;BME280;41326;45.302;-122.946;2023-06-04T02:46:02;101200.57;;;21.84;50.02
55460;BME280;41326;45.302;-122.946;2023-06-04T02:48:33;101203.80;;;21.85;50.03
55460;BME280;41326;45.302;-122.946;2023-06-04T02:51:03;101206.01;;;21.85;50.06
55460;BME280;41326;45.302;-122.946;2023-06-04T02:53:33;101209.68;;;21.84;50.10
55460;BME280;41326;45.302;-122.946;2023-06-04T02:56:03;101209.45;;;21.83;50.19
55460;BME280;41326;45.302;-122.946;2023-06-04T02:58:33;101215.70;;;21.84;50.17
55460;BME280;41326;45.302;-122.946;2023-06-04T03:01:03;101219.56;;;21.85;50.17
55460;BME280;41326;45.302;-122.946;2023-06-04T03:03:34;101225.56;;;21.84;50.28
55460;BME280;41326;45.302;-122.946;2023-06-04T03:06:04;101234.14;;;21.84;50.33
55460;BME280;41326;45.302;-122.946;2023-06-04T03:08:34;101236.66;;;21.77;49.99
55460;BME280;41326;45.302;-122.946;2023-06-04T03:11:04;101239.72;;;21.63;49.33
55460;BME280;41326;45.302;-122.946;2023-06-04T03:13:35;101252.86;;;21.29;49.25
55460;BME280;41326;45.302;-122.946;2023-06-04T03:16:05;101259.58;;;21.13;49.05
55460;BME280;41326;45.302;-122.946;2023-06-04T03:18:36;101263.46;;;21.01;47.42
55460;BME280;41326;45.302;-122.946;2023-06-04T03:21:06;101257.87;;;20.75;49.11
55460;BME280;41326;45.302;-122.946;2023-06-04T03:23:37;101265.79;;;20.82;49.23
55460;BME280;41326;45.302;-122.946;2023-06-04T03:26:07;101269.24;;;21.00;48.85
55460;BME280;41326;45.302;-122.946;2023-06-04T03:28:38;101272.33;;;20.84;48.13
55460;BME280;41326;45.302;-122.946;2023-06-04T03:31:07;101283.87;;;20.53;48.42
55460;BME280;41326;45.302;-122.946;2023-06-04T03:33:37;101291.31;;;20.32;48.52
55460;BME280;41326;45.302;-122.946;2023-06-04T03:36:08;101287.43;;;20.21;48.31
55460;BME280;41326;45.302;-122.946;2023-06-04T03:38:38;101296.20;;;20.15;48.04
55460;BME280;41326;45.302;-122.946;2023-06-04T03:41:08;101302.64;;;19.98;47.63
55460;BME280;41326;45.302;-122.946;2023-06-04T03:43:38;101303.57;;;19.86;46.32
55460;BME280;41326;45.302;-122.946;2023-06-04T03:46:09;101312.60;;;19.60;47.95
55460;BME280;41326;45.302;-122.946;2023-06-04T03:48:41;101316.00;;;19.48;46.88
55460;BME280;41326;45.302;-122.946;2023-06-04T03:51:11;101318.60;;;19.41;48.64
55460;BME280;41326;45.302;-122.946;2023-06-04T03:53:41;101323.98;;;19.28;49.28
55460;BME280;41326;45.302;-122.946;2023-06-04T03:56:11;101326.13;;;19.20;48.99
55460;BME280;41326;45.302;-122.946;2023-06-04T03:58:41;101334.39;;;19.23;48.17
55460;BME280;41326;45.302;-122.946;2023-06-04T04:01:11;101338.87;;;19.11;49.48
55460;BME280;41326;45.302;-122.946;2023-06-04T04:03:42;101344.25;;;19.12;49.78
55460;BME280;41326;45.302;-122.946;2023-06-04T04:06:12;101345.98;;;19.01;49.65
55460;BME280;41326;45.302;-122.946;2023-06-04T04:08:43;101344.28;;;18.88;49.71
55460;BME280;41326;45.302;-122.946;2023-06-04T04:11:13;101350.92;;;18.87;47.72
55460;BME280;41326;45.302;-122.946;2023-06-04T04:13:44;101353.27;;;18.84;50.42
55460;BME280;41326;45.302;-122.946;2023-06-04T04:16:13;101351.56;;;18.87;51.71
55460;BME280;41326;45.302;-122.946;2023-06-04T04:18:44;101359.58;;;19.02;51.66
55460;BME280;41326;45.302;-122.946;2023-06-04T04:21:14;101364.76;;;19.12;51.45
55460;BME280;41326;45.302;-122.946;2023-06-04T04:23:45;101371.35;;;19.26;51.36
55460;BME280;41326;45.302;-122.946;2023-06-04T04:26:14;101372.22;;;19.23;51.62
55460;BME280;41326;45.302;-122.946;2023-06-04T04:28:45;101381.82;;;19.47;51.14
55460;BME280;41326;45.302;-122.946;2023-06-04T04:31:15;101385.58;;;19.64;50.59
55460;BME280;41326;45.302;-122.946;2023-06-04T04:33:46;101387.31;;;19.48;51.66
55460;BME280;41326;45.302;-122.946;2023-06-04T04:36:16;101395.79;;;19.38;52.49
55460;BME280;41326;45.302;-122.946;2023-06-04T04:38:47;101396.82;;;19.35;52.65
55460;BME280;41326;45.302;-122.946;2023-06-04T04:41:17;101396.34;;;19.44;52.55
55460;BME280;41326;45.302;-122.946;2023-06-04T04:43:48;101400.87;;;19.26;53.02
55460;BME280;41326;45.302;-122.946;2023-06-04T04:46:18;101406.97;;;19.26;53.11
55460;BME280;41326;45.302;-122.946;2023-06-04T04:48:48;101411.17;;;19.37;52.73
55460;BME280;41326;45.302;-122.946;2023-06-04T04:51:18;101417.68;;;19.41;52.70
55460;BME280;41326;45.302;-122.946;2023-06-04T04:53:49;101422.48;;;19.44;53.24
55460;BME280;41326;45.302;-122.946;2023-06-04T04:56:19;101424.02;;;19.44;53.57
55460;BME280;41326;45.302;-122.946;2023-06-04T04:58:49;101423.72;;;19.40;53.54
55460;BME280;41326;45.302;-122.946;2023-06-04T05:01:19;101423.59;;;19.46;53.25
55460;BME280;41326;45.302;-122.946;2023-06-04T05:03:50;101428.92;;;19.29;53.67
55460;BME280;41326;45.302;-122.946;2023-06-04T05:06:20;101430.02;;;19.49;53.16
55460;BME280;41326;45.302;-122.946;2023-06-04T05:08:51;101428.88;;;19.63;52.20
55460;BME280;41326;45.302;-122.946;2023-06-04T05:11:21;101444.87;;;19.57;52.72
55460;BME280;41326;45.302;-122.946;2023-06-04T05:13:50;101444.48;;;19.48;52.89
55460;BME280;41326;45.302;-122.946;2023-06-04T05:16:21;101442.27;;;19.49;53.59
55460;BME280;41326;45.302;-122.946;2023-06-04T05:18:51;101447.35;;;19.60;53.26
55460;BME280;41326;45.302;-122.946;2023-06-04T05:21:22;101448.19;;;19.68;53.08
55460;BME280;41326;45.302;-122.946;2023-06-04T05:23:51;101452.06;;;19.71;52.91
55460;BME280;41326;45.302;-122.946;2023-06-04T05:26:22;101454.93;;;19.57;52.95
55460;BME280;41326;45.302;-122.946;2023-06-04T05:28:52;101459.54;;;19.66;52.70
55460;BME280;41326;45.302;-122.946;2023-06-04T05:31:22;101452.27;;;19.74;52.27
55460;BME280;41326;45.302;-122.946;2023-06-04T05:33:53;101457.80;;;19.64;53.07
55460;BME280;41326;45.302;-122.946;2023-06-04T05:36:23;101461.08;;;19.69;53.31
55460;BME280;41326;45.302;-122.946;2023-06-04T05:38:53;101458.75;;;19.71;53.16
55460;BME280;41326;45.302;-122.946;2023-06-04T05:41:24;101467.12;;;19.68;52.68
55460;BME280;41326;45.302;-122.946;2023-06-04T05:43:54;101469.95;;;19.67;52.33
55460;BME280;41326;45.302;-122.946;2023-06-04T05:46:24;101472.20;;;19.47;53.09
55460;BME280;41326;45.302;-122.946;2023-06-04T05:48:55;101474.40;;;19.42;53.21
55460;BME280;41326;45.302;-122.946;2023-06-04T05:51:25;101481.03;;;19.46;53.06
55460;BME280;41326;45.302;-122.946;2023-06-04T05:53:55;101491.35;;;19.40;53.19
55460;BME280;41326;45.302;-122.946;2023-06-04T05:56:26;101494.65;;;19.21;54.05
55460;BME280;41326;45.302;-122.946;2023-06-04T05:58:57;101495.44;;;19.38;53.20
55460;BME280;41326;45.302;-122.946;2023-06-04T06:01:25;101500.91;;;19.52;52.75
55460;BME280;41326;45.302;-122.946;2023-06-04T06:03:55;101501.61;;;19.45;53.00
55460;BME280;41326;45.302;-122.946;2023-06-04T06:06:26;101500.79;;;19.42;53.00
55460;BME280;41326;45.302;-122.946;2023-06-04T06:08:56;101514.33;;;19.35;53.10
55460;BME280;41326;45.302;-122.946;2023-06-04T06:11:26;101518.54;;;19.43;52.83
55460;BME280;41326;45.302;-122.946;2023-06-04T06:13:56;101523.27;;;19.29;53.50
55460;BME280;41326;45.302;-122.946;2023-06-04T06:16:26;101520.92;;;19.23;53.56
55460;BME280;41326;45.302;-122.946;2023-06-04T06:18:57;101523.79;;;19.13;53.45
55460;BME280;41326;45.302;-122.946;2023-06-04T06:21:27;101530.13;;;19.13;53.44
55460;BME280;41326;45.302;-122.946;2023-06-04T06:23:57;101526.61;;;19.19;53.27
55460;BME280;41326;45.302;-122.946;2023-06-04T06:26:28;101533.94;;;19.35;52.64
55460;BME280;41326;45.302;-122.946;2023-06-04T06:28:58;101535.79;;;19.35;52.73
55460;BME280;41326;45.302;-122.946;2023-06-04T06:32:35;101540.05;;;19.37;52.71
55460;BME280;41326;45.302;-122.946;2023-06-04T06:35:06;101543.56;;;19.28;52.91
55460;BME280;41326;45.302;-122.946;2023-06-04T06:37:36;101546.74;;;19.34;52.74
55460;BME280;41326;45.302;-122.946;2023-06-04T06:40:06;101545.64;;;19.31;52.42
55460;BME280;41326;45.302;-122.946;2023-06-04T06:42:38;101550.87;;;19.21;52.07
55460;BME280;41326;45.302;-122.946;2023-06-04T06:45:07;101551.35;;;19.37;51.55
55460;BME280;41326;45.302;-122.946;2023-06-04T06:47:36;101556.12;;;19.27;51.16
55460;BME280;41326;45.302;-122.946;2023-06-04T06:50:07;101560.70;;;19.33;51.07
55460;BME280;41326;45.302;-122.946;2023-06-04T06:52:37;101561.77;;;19.11;51.99
55460;BME280;41326;45.302;-122.946;2023-06-04T06:55:08;101569.58;;;19.08;51.71
55460;BME280;41326;45.302;-122.946;2023-06-04T06:57:38;101564.60;;;18.93;50.43
55460;BME280;41326;45.302;-122.946;2023-06-04T07:00:09;101563.73;;;19.15;50.27
55460;BME280;41326;45.302;-122.946;2023-06-04T07:02:39;101560.34;;;18.92;51.41
55460;BME280;41326;45.302;-122.946;2023-06-04T07:05:10;101566.30;;;18.80;50.69
55460;BME280;41326;45.302;-122.946;2023-06-04T07:07:39;101562.04;;;18.89;50.88
55460;BME280;41326;45.302;-122.946;2023-06-04T07:10:10;101568.16;;;18.71;51.33
55460;BME280;41326;45.302;-122.946;2023-06-04T07:12:40;101568.35;;;18.62;50.59
55460;BME280;41326;45.302;-122.946;2023-06-04T07:15:11;101564.10;;;18.90;50.49
55460;BME280;41326;45.302;-122.946;2023-06-04T07:17:42;101564.37;;;18.72;48.01
55460;BME280;41326;45.302;-122.946;2023-06-04T07:20:12;101569.70;;;18.50;49.79
55460;BME280;41326;45.302;-122.946;2023-06-04T07:22:42;101573.72;;;18.55;48.16
55460;BME280;41326;45.302;-122.946;2023-06-04T07:25:12;101570.42;;;18.12;47.65
55460;BME280;41326;45.302;-122.946;2023-06-04T07:27:42;101569.37;;;17.75;48.05
55460;BME280;41326;45.302;-122.946;2023-06-04T07:30:13;101566.09;;;17.97;47.31
55460;BME280;41326;45.302;-122.946;2023-06-04T07:32:51;101566.14;;;17.96;46.18
55460;BME280;41326;45.302;-122.946;2023-06-04T07:35:17;101568.70;;;17.85;46.70
55460;BME280;41326;45.302;-122.946;2023-06-04T07:37:48;101574.86;;;17.85;47.94
55460;BME280;41326;45.302;-122.946;2023-06-04T07:40:18;101578.70;;;17.73;48.05
55460;BME280;41326;45.302;-122.946;2023-06-04T07:42:52;101576.12;;;17.92;46.94
55460;BME280;41326;45.302;-122.946;2023-06-04T07:45:19;101580.77;;;17.91;47.92
55460;BME280;41326;45.302;-122.946;2023-06-04T07:47:49;101580.48;;;17.82;46.76
55460;BME280;41326;45.302;-122.946;2023-06-04T07:50:19;101583.82;;;17.99;47.33
55460;BME280;41326;45.302;-122.946;2023-06-04T07:52:50;101582.12;;;18.00;47.35
55460;BME280;41326;45.302;-122.946;2023-06-04T07:55:21;101589.47;;;17.89;46.55
55460;BME280;41326;45.302;-122.946;2023-06-04T07:57:51;101589.24;;;17.65;46.95
55460;BME280;41326;45.302;-122.946;2023-06-04T08:00:21;101587.04;;;17.70;46.83
55460;BME280;41326;45.302;-122.946;2023-06-04T08:02:51;101595.57;;;17.85;47.02
55460;BME280;41326;45.302;-122.946;2023-06-04T08:05:22;101585.45;;;17.93;45.70
55460;BME280;41326;45.302;-122.946;2023-06-04T08:07:52;101589.92;;;17.99;46.66
55460;BME280;41326;45.302;-122.946;2023-06-04T08:10:22;101580.19;;;17.99;46.43
55460;BME280;41326;45.302;-122.946;2023-06-04T08:12:52;101586.37;;;17.99;47.22
55460;BME280;41326;45.302;-122.946;2023-06-04T08:15:23;101582.89;;;17.87;47.74
55460;BME280;41326;45.302;-122.946;2023-06-04T08:17:53;101583.84;;;17.72;47.39
55460;BME280;41326;45.302;-122.946;2023-06-04T08:20:24;101588.31;;;17.68;45.72
55460;BME280;41326;45.302;-122.946;2023-06-04T08:22:54;101588.58;;;17.99;46.02
55460;BME280;41326;45.302;-122.946;2023-06-04T08:25:24;101588.25;;;17.92;46.78
55460;BME280;41326;45.302;-122.946;2023-06-04T08:27:54;101586.55;;;17.74;42.58
55460;BME280;41326;45.302;-122.946;2023-06-04T08:30:24;101589.24;;;17.68;45.43
55460;BME280;41326;45.302;-122.946;2023-06-04T08:32:55;101585.30;;;17.57;45.72
55460;BME280;41326;45.302;-122.946;2023-06-04T08:35:25;101588.24;;;17.71;45.94
55460;BME280;41326;45.302;-122.946;2023-06-04T08:37:56;101585.87;;;17.37;44.50
55460;BME280;41326;45.302;-122.946;2023-06-04T08:40:26;101590.13;;;17.58;46.38
55460;BME280;41326;45.302;-122.946;2023-06-04T08:42:58;101592.85;;;17.62;46.45
55460;BME280;41326;45.302;-122.946;2023-06-04T08:45:27;101600.43;;;17.66;46.41
55460;BME280;41326;45.302;-122.946;2023-06-04T08:47:57;101606.19;;;17.81;46.52
55460;BME280;41326;45.302;-122.946;2023-06-04T08:50:29;101599.20;;;17.79;46.48
55460;BME280;41326;45.302;-122.946;2023-06-04T08:52:59;101603.13;;;17.81;46.06
55460;BME280;41326;45.302;-122.946;2023-06-04T08:55:29;101611.40;;;17.88;45.00
55460;BME280;41326;45.302;-122.946;2023-06-04T08:57:59;101610.16;;;17.86;45.98
55460;BME280;41326;45.302;-122.946;2023-06-04T09:00:29;101613.72;;;17.73;46.65
55460;BME280;41326;45.302;-122.946;2023-06-04T09:02:59;101612.50;;;17.37;46.78
55460;BME280;41326;45.302;-122.946;2023-06-04T09:05:30;101608.46;;;17.28;46.48
55460;BME280;41326;45.302;-122.946;2023-06-04T09:08:01;101611.92;;;17.48;45.06
55460;BME280;41326;45.302;-122.946;2023-06-04T09:10:31;101610.44;;;17.26;47.03
55460;BME280;41326;45.302;-122.946;2023-06-04T09:13:03;101617.27;;;17.21;46.95
55460;BME280;41326;45.302;-122.946;2023-06-04T09:15:32;101617.45;;;17.16;47.42
55460;BME280;41326;45.302;-122.946;2023-06-04T09:18:03;101618.92;;;17.11;47.70
55460;BME280;41326;45.302;-122.946;2023-06-04T09:20:33;101615.14;;;16.96;46.49
55460;BME280;41326;45.302;-122.946;2023-06-04T09:25:33;101616.06;;;16.65;47.32
55460;BME280;41326;45.302;-122.946;2023-06-04T09:28:09;101616.31;;;16.59;45.71
55460;BME280;41326;45.302;-122.946;2023-06-04T09:30:34;101617.44;;;16.40;46.31
55460;BME280;41326;45.302;-122.946;2023-06-04T09:33:09;101621.72;;;16.36;48.22
55460;BME280;41326;45.302;-122.946;2023-06-04T09:35:36;101623.25;;;16.63;46.70
55460;BME280;41326;45.302;-122.946;2023-06-04T09:38:06;101619.12;;;16.41;47.03
55460;BME280;41326;45.302;-122.946;2023-06-04T09:40:41;101617.97;;;16.68;46.59
55460;BME280;41326;45.302;-122.946;2023-06-04T09:43:06;101622.10;;;16.66;47.26
55460;BME280;41326;45.302;-122.946;2023-06-04T09:45:37;101627.21;;;16.59;46.50
55460;BME280;41326;45.302;-122.946;2023-06-04T09:48:07;101628.36;;;16.41;46.60
55460;BME280;41326;45.302;-122.946;2023-06-04T09:50:37;101627.20;;;16.36;47.37
55460;BME280;41326;45.302;-122.946;2023-06-04T09:55:37;101626.72;;;16.28;47.84
55460;BME280;41326;45.302;-122.946;2023-06-04T09:58:09;101624.76;;;16.43;47.99
55460;BME280;41326;45.302;-122.946;2023-06-04T10:00:39;101628.37;;;16.56;47.54
55460;BME280;41326;45.302;-122.946;2023-06-04T10:03:09;101622.55;;;16.70;47.46
55460;BME280;41326;45.302;-122.946;2023-06-04T10:05:39;101623.44;;;16.77;47.35
55460;BME280;41326;45.302;-122.946;2023-06-04T10:08:09;101627.98;;;16.86;47.01
55460;BME280;41326;45.302;-122.946;2023-06-04T10:10:41;101625.64;;;16.78;45.95
55460;BME280;41326;45.302;-122.946;2023-06-04T10:13:14;101631.09;;;16.61;46.72
55460;BME280;41326;45.302;-122.946;2023-06-04T10:15:41;101632.56;;;16.65;47.02
55460;BME280;41326;45.302;-122.946;2023-06-04T10:18:11;101637.27;;;16.64;46.43
55460;BME280;41326;45.302;-122.946;2023-06-04T10:20:41;101635.76;;;16.29;46.88
55460;BME280;41326;45.302;-122.946;2023-06-04T10:23:12;101636.71;;;16.10;47.04
55460;BME280;41326;45.302;-122.946;2023-06-04T10:25:42;101633.46;;;16.24;47.63
55460;BME280;41326;45.302;-122.946;2023-06-04T10:28:12;101633.01;;;16.25;47.48
55460;BME280;41326;45.302;-122.946;2023-06-04T10:30:42;101634.82;;;15.92;46.64
55460;BME280;41326;45.302;-122.946;2023-06-04T10:33:12;101634.18;;;15.86;47.64
55460;BME280;41326;45.302;-122.946;2023-06-04T10:35:42;101631.99;;;15.92;46.70
55460;BME280;41326;45.302;-122.946;2023-06-04T10:38:13;101633.51;;;16.01;46.93
55460;BME280;41326;45.302;-122.946;2023-06-04T10:40:43;101633.07;;;16.20;46.95
55460;BME280;41326;45.302;-122.946;2023-06-04T10:43:14;101631.63;;;16.08;47.10
55460;BME280;41326;45.302;-122.946;2023-06-04T10:45:44;101626.88;;;16.14;46.64
55460;BME280;41326;45.302;-122.946;2023-06-04T10:48:15;101625.10;;;16.19;47.74
55460;BME280;41326;45.302;-122.946;2023-06-04T10:50:49;101631.68;;;15.91;46.53
55460;BME280;41326;45.302;-122.946;2023-06-04T10:53:16;101626.58;;;15.79;46.84
55460;BME280;41326;45.302;-122.946;2023-06-04T10:55:49;101633.27;;;15.27;48.04
55460;BME280;41326;45.302;-122.946;2023-06-04T10:58:16;101635.44;;;15.47;48.11
55460;BME280;41326;45.302;-122.946;2023-06-04T11:00:47;101625.06;;;15.43;47.26
55460;BME280;41326;45.302;-122.946;2023-06-04T11:03:18;101624.88;;;15.35;48.40
55460;BME280;41326;45.302;-122.946;2023-06-04T11:05:48;101624.22;;;15.42;48.66
55460;BME280;41326;45.302;-122.946;2023-06-04T11:10:49;101619.41;;;15.60;48.56
55460;BME280;41326;45.302;-122.946;2023-06-04T11:13:23;101622.62;;;15.65;48.48
55460;BME280;41326;45.302;-122.946;2023-06-04T11:15:49;101620.11;;;15.76;48.38
55460;BME280;41326;45.302;-122.946;2023-06-04T11:18:21;101623.41;;;15.69;48.34
55460;BME280;41326;45.302;-122.946;2023-06-04T11:20:58;101623.36;;;15.83;46.96
55460;BME280;41326;45.302;-122.946;2023-06-04T11:23:21;101621.33;;;15.86;48.12
55460;BME280;41326;45.302;-122.946;2023-06-04T11:25:52;101628.31;;;15.92;48.29
55460;BME280;41326;45.302;-122.946;2023-06-04T11:28:22;101629.92;;;16.00;48.40
55460;BME280;41326;45.302;-122.946;2023-06-04T11:30:56;101627.82;;;16.18;48.04
55460;BME280;41326;45.302;-122.946;2023-06-04T11:33:22;101636.08;;;16.00;48.74
55460;BME280;41326;45.302;-122.946;2023-06-04T11:35:52;101633.87;;;16.04;48.39
55460;BME280;41326;45.302;-122.946;2023-06-04T11:38:22;101631.39;;;16.10;47.93
55460;BME280;41326;45.302;-122.946;2023-06-04T11:40:58;101634.11;;;16.03;48.48
55460;BME280;41326;45.302;-122.946;2023-06-04T11:43:23;101631.68;;;15.82;46.55
55460;BME280;41326;45.302;-122.946;2023-06-04T11:45:53;101631.36;;;15.85;47.82
55460;BME280;41326;45.302;-122.946;2023-06-04T11:48:23;101632.70;;;15.90;48.30
55460;BME280;41326;45.302;-122.946;2023-06-04T11:50:53;101642.33;;;15.87;48.91
55460;BME280;41326;45.302;-122.946;2023-06-04T11:53:24;101635.88;;;15.72;48.24
55460;BME280;41326;45.302;-122.946;2023-06-04T11:55:55;101638.85;;;15.94;48.29
55460;BME280;41326;45.302;-122.946;2023-06-04T11:58:25;101639.57;;;15.95;48.58
55460;BME280;41326;45.302;-122.946;2023-06-04T12:00:56;101637.10;;;15.92;48.98
55460;BME280;41326;45.302;-122.946;2023-06-04T12:05:56;101651.31;;;15.95;49.17
55460;BME280;41326;45.302;-122.946;2023-06-04T12:08:26;101655.73;;;15.96;49.32
55460;BME280;41326;45.302;-122.946;2023-06-04T12:10:56;101650.85;;;16.05;49.08
55460;BME280;41326;45.302;-122.946;2023-06-04T12:13:26;101651.01;;;16.00;49.07
55460;BME280;41326;45.302;-122.946;2023-06-04T12:15:57;101659.19;;;15.85;47.80
55460;BME280;41326;45.302;-122.946;2023-06-04T12:18:29;101659.76;;;15.88;48.81
55460;BME280;41326;45.302;-122.946;2023-06-04T12:20:57;101663.94;;;15.86;49.33
55460;BME280;41326;45.302;-122.946;2023-06-04T12:23:28;101667.84;;;15.87;48.19
55460;BME280;41326;45.302;-122.946;2023-06-04T12:25:57;101670.96;;;15.96;48.88
55460;BME280;41326;45.302;-122.946;2023-06-04T12:28:28;101671.00;;;15.99;48.89
55460;BME280;41326;45.302;-122.946;2023-06-04T12:30:58;101671.58;;;15.96;48.52
55460;BME280;41326;45.302;-122.946;2023-06-04T12:33:28;101672.72;;;15.93;48.75
55460;BME280;41326;45.302;-122.946;2023-06-04T12:35:59;101679.74;;;15.94;48.89
55460;BME280;41326;45.302;-122.946;2023-06-04T12:38:29;101674.17;;;15.80;47.91
55460;BME280;41326;45.302;-122.946;2023-06-04T12:41:00;101676.55;;;15.81;48.33
55460;BME280;41326;45.302;-122.946;2023-06-04T12:43:30;101677.67;;;15.54;48.83
55460;BME280;41326;45.302;-122.946;2023-06-04T12:46:00;101674.19;;;15.42;48.34